createdAt,value
2019-04-04T00:01:25.802Z,5.00
2019-04-04T00:06:17.212Z,5.00
2019-04-04T00:11:08.557Z,4.90
2019-04-04T00:15:59.903Z,4.90
2019-04-04T00:20:51.342Z,4.80
2019-04-04T00:25:42.687Z,4.70
2019-04-04T00:30:34.107Z,4.70
2019-04-04T00:35:25.483Z,4.70
2019-04-04T00:40:16.856Z,4.70
2019-04-04T00:45:08.320Z,4.60
2019-04-04T00:50:01.907Z,4.60
2019-04-04T00:54:53.373Z,4.50
2019-04-04T00:59:44.755Z,4.50
2019-04-04T01:04:36.169Z,4.60
2019-04-04T01:09:27.507Z,4.60
2019-04-04T01:14:18.960Z,4.60
2019-04-04T01:19:11.059Z,4.50
2019-04-04T01:24:01.833Z,4.50
2019-04-04T01:28:55.436Z,4.50
2019-04-04T01:33:51.738Z,4.50
2019-04-04T01:38:40.590Z,4.50
2019-04-04T01:43:34.195Z,4.50
2019-04-04T01:48:27.830Z,4.50
2019-04-04T01:53:19.276Z,4.50
2019-04-04T01:58:11.321Z,4.50
2019-04-04T02:03:02.087Z,4.50
2019-04-04T02:07:55.646Z,4.50
2019-04-04T02:12:51.587Z,4.50
2019-04-04T02:17:43.090Z,4.40
2019-04-04T02:22:34.496Z,4.40
2019-04-04T02:32:19.433Z,4.40
2019-04-04T02:37:13.052Z,4.50
2019-04-04T02:42:06.720Z,4.50
2019-04-04T02:46:58.168Z,4.60
2019-04-04T02:51:49.515Z,4.70
2019-04-04T02:56:40.959Z,4.70
2019-04-04T03:01:34.568Z,4.80
2019-04-04T03:06:28.349Z,4.90
2019-04-04T03:11:23.409Z,4.70
2019-04-04T03:16:15.654Z,4.70
2019-04-04T03:21:07.134Z,4.70
2019-04-04T03:25:58.551Z,4.60
2019-04-04T03:31:04.479Z,4.60
2019-04-04T03:35:41.321Z,4.60
2019-04-04T03:40:32.688Z,4.60
2019-04-04T03:45:28.058Z,4.60
2019-04-04T03:50:15.417Z,4.70
2019-04-04T03:55:06.839Z,4.60
2019-04-04T03:59:58.193Z,4.60
2019-04-04T04:04:49.603Z,4.60
2019-04-04T04:09:41.054Z,4.60
2019-04-04T04:14:32.414Z,4.60
2019-04-04T04:19:31.679Z,4.60
2019-04-04T04:24:15.210Z,4.60
2019-04-04T04:29:06.514Z,4.60
2019-04-04T04:34:02.383Z,4.70
2019-04-04T04:38:49.337Z,4.70
2019-04-04T04:43:40.743Z,4.90
2019-04-04T04:48:32.659Z,4.90
2019-04-04T04:53:23.582Z,5.00
2019-04-04T04:58:14.886Z,5.00
2019-04-04T05:03:06.251Z,4.90
2019-04-04T05:07:57.686Z,4.90
2019-04-04T05:12:49.115Z,4.90
2019-04-04T05:17:43.060Z,5.00
2019-04-04T05:22:31.887Z,5.00
2019-04-04T05:27:23.170Z,5.10
2019-04-04T05:32:14.682Z,5.10
2019-04-04T05:37:08.452Z,5.20
2019-04-04T05:42:01.560Z,5.20
2019-04-04T05:46:52.625Z,5.10
2019-04-04T05:51:40.201Z,5.10
2019-04-04T05:56:31.612Z,5.00
2019-04-04T06:01:23.057Z,5.10
2019-04-04T06:06:14.397Z,5.10
2019-04-04T06:11:05.784Z,5.00
2019-04-04T06:15:57.142Z,5.00
2019-04-04T06:20:49.612Z,5.00
2019-04-04T06:25:39.936Z,5.00
2019-04-04T06:30:44.305Z,5.10
2019-04-04T06:35:22.653Z,5.10
2019-04-04T06:40:14.055Z,5.20
2019-04-04T06:45:05.517Z,5.20
2019-04-04T06:49:56.979Z,5.30
2019-04-04T06:54:48.379Z,5.20
2019-04-04T06:59:44.424Z,5.20
2019-04-04T07:04:36.494Z,5.20
2019-04-04T07:09:22.579Z,5.30
2019-04-04T07:14:13.984Z,5.30
2019-04-04T07:19:08.765Z,5.40
2019-04-04T07:24:00.537Z,5.40
2019-04-04T07:28:54.410Z,5.40
2019-04-04T07:33:43.797Z,5.40
2019-04-04T07:38:31.003Z,5.50
2019-04-04T07:43:22.402Z,5.50
2019-04-04T07:48:16.122Z,5.50
2019-04-04T07:53:06.058Z,5.60
2019-04-04T07:57:56.937Z,5.50
2019-04-04T08:02:48.313Z,5.60
2019-04-04T08:07:39.664Z,5.70
2019-04-04T08:12:31.044Z,5.70
2019-04-04T08:17:22.534Z,5.60
2019-04-04T08:22:14.253Z,5.70
2019-04-04T08:27:05.302Z,6.10
2019-04-04T08:31:56.618Z,6.30
2019-04-04T08:36:48.051Z,6.20
2019-04-04T08:41:39.485Z,6.10
2019-04-04T08:46:30.875Z,6.20
2019-04-04T08:51:22.189Z,6.30
2019-04-04T08:56:13.629Z,6.40
2019-04-04T09:01:04.953Z,6.40
2019-04-04T09:05:56.395Z,6.30
2019-04-04T09:10:47.745Z,6.40
2019-04-04T09:15:41.390Z,6.40
2019-04-04T09:20:39.622Z,6.60
2019-04-04T09:25:31.083Z,6.60
2019-04-04T09:30:24.659Z,6.60
2019-04-04T09:35:16.134Z,6.50
2019-04-04T09:40:12.002Z,6.60
2019-04-04T09:45:03.435Z,6.70
2019-04-04T09:50:46.706Z,6.80
2019-04-04T09:55:38.187Z,6.40
2019-04-04T10:00:34.109Z,6.30
2019-04-04T10:05:25.566Z,6.20
2019-04-04T10:10:16.909Z,6.10
2019-04-04T10:15:08.388Z,6.10
2019-04-04T10:19:59.754Z,5.90
2019-04-04T10:24:53.335Z,5.90
2019-04-04T10:29:44.745Z,5.80
2019-04-04T10:34:36.227Z,5.80
2019-04-04T10:39:33.195Z,6.20
2019-04-04T10:44:19.016Z,6.30
2019-04-04T10:49:10.396Z,6.30
2019-04-04T10:54:01.754Z,6.30
2019-04-04T10:58:53.083Z,6.30
2019-04-04T11:03:44.532Z,6.40
2019-04-04T11:08:35.887Z,6.40
2019-04-04T11:13:34.627Z,6.30
2019-04-04T11:18:18.699Z,6.40
2019-04-04T11:23:10.091Z,6.40
2019-04-04T11:28:01.490Z,6.30
2019-04-04T11:32:52.884Z,6.30
2019-04-04T11:37:44.268Z,6.20
2019-04-04T11:42:35.709Z,6.30
2019-04-04T11:47:27.100Z,6.40
2019-04-04T11:52:18.475Z,6.60
2019-04-04T11:57:09.826Z,6.60
2019-04-04T12:02:03.488Z,6.70
2019-04-04T12:06:57.182Z,6.50
2019-04-04T12:11:48.607Z,6.60
2019-04-04T12:16:39.974Z,6.70
2019-04-04T12:21:31.412Z,6.70
2019-04-04T12:26:22.807Z,6.50
2019-04-04T12:31:16.402Z,6.20
2019-04-04T12:36:10.131Z,6.00
2019-04-04T12:41:01.585Z,6.00
2019-04-04T12:45:53.436Z,5.80
2019-04-04T12:50:48.828Z,5.70
2019-04-04T12:55:38.069Z,5.60
2019-04-04T13:00:29.405Z,5.60
2019-04-04T13:05:20.840Z,5.50
2019-04-04T13:10:12.885Z,5.50
2019-04-04T13:15:03.668Z,5.60
2019-04-04T13:19:55.050Z,5.60
2019-04-04T13:24:46.514Z,5.70
2019-04-04T13:29:37.827Z,5.60
2019-04-04T13:34:29.282Z,5.60
2019-04-04T13:39:20.920Z,5.70
2019-04-04T13:44:12.088Z,6.00
2019-04-04T13:49:05.645Z,6.60
2019-04-04T13:53:57.737Z,7.20
2019-04-04T13:58:48.459Z,7.20
2019-04-04T14:03:42.182Z,7.20
2019-04-04T14:08:33.585Z,7.40
2019-04-04T14:13:26.881Z,7.40
2019-04-04T14:18:16.561Z,7.30
2019-04-04T14:23:07.885Z,7.40
2019-04-04T14:27:59.278Z,7.00
2019-04-04T14:32:50.603Z,6.90
2019-04-04T14:37:41.957Z,6.90
2019-04-04T14:42:33.414Z,6.70
2019-04-04T14:47:24.830Z,6.40
2019-04-04T14:52:21.024Z,6.40
2019-04-04T14:57:07.605Z,6.40
2019-04-04T15:01:58.995Z,6.60
2019-04-04T15:06:50.377Z,6.50
2019-04-04T15:11:41.781Z,6.60
2019-04-04T15:16:35.380Z,6.60
2019-04-04T15:21:29.033Z,6.60
2019-04-04T15:26:20.438Z,6.70
2019-04-04T15:31:14.246Z,6.90
2019-04-04T15:36:07.913Z,7.30
2019-04-04T15:40:59.371Z,7.30
2019-04-04T15:45:50.754Z,7.30
2019-04-04T15:50:44.371Z,7.30
2019-04-04T15:55:35.800Z,7.30
2019-04-04T16:00:27.198Z,7.30
2019-04-04T16:05:18.621Z,7.50
2019-04-04T16:15:03.674Z,7.40
2019-04-04T16:19:55.041Z,7.40
2019-04-04T16:24:46.509Z,7.30
2019-04-04T16:29:37.852Z,7.10
2019-04-04T16:34:29.243Z,7.00
2019-04-04T16:39:20.618Z,7.00
2019-04-04T16:44:12.019Z,6.90
2019-04-04T16:49:03.445Z,6.80
2019-04-04T16:53:54.839Z,6.80
2019-04-04T16:58:46.262Z,6.70
2019-04-04T17:03:37.593Z,6.60
2019-04-04T17:08:29.033Z,6.40
2019-04-04T17:13:20.426Z,6.10
2019-04-04T17:18:11.858Z,5.90
2019-04-04T17:23:05.477Z,5.80
2019-04-04T17:27:57.042Z,5.70
2019-04-04T17:32:50.745Z,5.60
2019-04-04T17:37:40.397Z,5.60
2019-04-04T17:42:34.706Z,5.60
2019-04-04T17:47:23.203Z,5.50
2019-04-04T17:52:16.297Z,5.40
2019-04-04T17:57:09.929Z,5.40
2019-04-04T18:02:01.391Z,5.30
2019-04-04T18:06:52.851Z,5.30
2019-04-04T18:11:44.241Z,5.30
2019-04-04T18:16:35.599Z,5.30
2019-04-04T18:21:27.107Z,5.30
2019-04-04T18:26:18.388Z,5.30
2019-04-04T18:31:09.816Z,5.20
2019-04-04T18:36:03.845Z,5.20
2019-04-04T18:40:54.921Z,5.10
2019-04-04T18:45:46.306Z,4.90
2019-04-04T18:50:37.647Z,4.90
2019-04-04T18:55:28.986Z,4.90
2019-04-04T19:05:14.025Z,4.80
2019-04-04T19:10:05.436Z,4.80
2019-04-04T19:14:59.021Z,4.80
2019-04-04T19:19:50.527Z,4.80
2019-04-04T19:24:41.908Z,4.90
2019-04-04T19:29:33.335Z,4.80
2019-04-04T19:34:24.667Z,4.70
2019-04-04T19:39:16.064Z,4.70
2019-04-04T19:44:07.512Z,4.60
2019-04-04T19:48:58.877Z,4.60
2019-04-04T19:53:50.283Z,4.60
2019-04-04T19:58:43.919Z,4.60
2019-04-04T20:03:37.647Z,4.60
2019-04-04T20:08:30.036Z,4.60
2019-04-04T20:13:31.982Z,4.50
2019-04-04T20:18:14.101Z,4.50
2019-04-04T20:23:05.497Z,4.60
2019-04-04T20:27:56.973Z,4.60
2019-04-04T20:32:48.383Z,4.50
2019-04-04T20:37:41.930Z,4.50
2019-04-04T20:42:33.409Z,4.50
2019-04-04T20:47:27.048Z,4.50
2019-04-04T20:52:20.679Z,4.60
2019-04-04T20:57:12.145Z,4.60
2019-04-04T21:02:10.282Z,4.60
2019-04-04T21:07:03.939Z,4.60
2019-04-04T21:11:57.647Z,4.60
2019-04-04T21:16:49.065Z,4.60
2019-04-04T21:21:40.493Z,4.60
2019-04-04T21:26:31.883Z,4.60
2019-04-04T21:31:23.247Z,4.60
2019-04-04T21:36:14.637Z,4.60
2019-04-04T21:41:06.037Z,4.60
2019-04-04T21:45:59.685Z,4.60
2019-04-04T21:50:51.134Z,4.70
2019-04-04T21:55:44.734Z,4.70
2019-04-04T22:00:36.125Z,4.70
2019-04-04T22:05:27.649Z,4.70
2019-04-04T22:10:18.953Z,4.70
2019-04-04T22:15:10.444Z,4.70
2019-04-04T22:20:01.786Z,4.70
2019-04-04T22:24:55.394Z,4.70
2019-04-04T22:29:46.906Z,4.80
2019-04-04T22:34:38.406Z,4.80
2019-04-04T22:39:29.693Z,4.80
2019-04-04T22:44:35.594Z,4.70
2019-04-04T22:49:12.556Z,4.80
2019-04-04T22:54:06.110Z,4.90
2019-04-04T22:58:59.852Z,4.90
2019-04-04T23:03:53.517Z,4.90
2019-04-04T23:08:44.974Z,5.00
2019-04-04T23:13:36.357Z,4.90
2019-04-04T23:18:27.778Z,4.80
2019-04-04T23:23:19.111Z,4.80
2019-04-04T23:28:10.523Z,4.70
2019-04-04T23:33:01.898Z,4.70
2019-04-04T23:37:53.361Z,4.80
2019-04-04T23:42:44.692Z,4.80
2019-04-04T23:47:44.106Z,4.80
2019-04-04T23:52:27.508Z,4.80
2019-04-04T23:57:21.124Z,4.70
